Time;durP1;ratioP1;P1;durP2;ratioP2;P2;SDS_P1;SDS_P2;PMS_P1;PMS_P2;Temp;Humidity;BMP_temperature;BMP_pressure;BME280_temperature;BME280_humidity;BME280_pressure;Samples;Min_cycle;Max_cycle;Signal;HPM_P1;HPM_P2
2023/02/03 00:00:05;;;;;;;0.50;0.20;;;6.80;99.90;;;;;;5117709;28;20415;-59
2023/02/03 00:02:33;;;;;;;1.23;0.20;;;6.70;99.90;;;;;;5117833;28;20422;-59
2023/02/03 00:05:00;;;;;;;0.50;0.20;;;6.70;99.90;;;;;;5118197;28;20424;-59
2023/02/03 00:07:27;;;;;;;0.50;0.20;;;6.70;99.90;;;;;;5117750;28;20416;-59
2023/02/03 00:09:55;;;;;;;0.52;0.20;;;6.70;99.90;;;;;;5117876;28;20424;-59
2023/02/03 00:12:23;;;;;;;0.40;0.20;;;6.60;99.90;;;;;;5117156;28;20415;-59
2023/02/03 00:14:51;;;;;;;0.40;0.20;;;6.60;99.90;;;;;;5117312;28;20424;-59
2023/02/03 00:17:18;;;;;;;0.40;0.20;;;6.60;99.90;;;;;;5117194;28;20420;-58
2023/02/03 00:19:45;;;;;;;0.60;0.20;;;6.60;99.90;;;;;;5117642;28;20430;-59
2023/02/03 00:22:13;;;;;;;0.40;0.20;;;6.60;99.90;;;;;;5117473;28;20836;-59
2023/02/03 00:24:40;;;;;;;0.40;0.20;;;6.70;99.90;;;;;;5117375;28;20432;-59
2023/02/03 00:27:07;;;;;;;0.40;0.20;;;6.70;99.90;;;;;;5117975;28;20426;-59
2023/02/03 00:29:34;;;;;;;0.60;0.20;;;6.70;99.90;;;;;;5117593;28;20430;-59
2023/02/03 00:32:02;;;;;;;0.40;0.20;;;6.70;99.90;;;;;;5117993;28;20599;-58
2023/02/03 00:34:30;;;;;;;0.70;0.20;;;6.70;99.90;;;;;;5117621;28;20723;-58
2023/02/03 00:36:57;;;;;;;0.40;0.20;;;6.70;99.90;;;;;;5118188;28;20416;-59
2023/02/03 00:39:24;;;;;;;0.50;0.20;;;6.60;99.90;;;;;;5117544;28;20428;-59
2023/02/03 00:41:51;;;;;;;0.40;0.10;;;6.60;99.90;;;;;;5118075;28;20419;-59
2023/02/03 00:44:18;;;;;;;0.40;0.20;;;6.70;99.90;;;;;;5116920;28;20870;-59
2023/02/03 00:46:45;;;;;;;0.30;0.10;;;6.70;99.90;;;;;;5117296;28;20419;-59
2023/02/03 00:49:14;;;;;;;0.40;0.20;;;6.70;99.90;;;;;;5116785;28;20432;-59
2023/02/03 00:51:41;;;;;;;0.30;0.10;;;6.70;99.90;;;;;;5117854;28;20430;-59
2023/02/03 00:54:08;;;;;;;0.40;0.20;;;6.70;99.90;;;;;;5116871;28;20423;-59
2023/02/03 00:56:35;;;;;;;0.40;0.20;;;6.70;99.90;;;;;;5117617;28;20785;-59
2023/02/03 00:59:02;;;;;;;0.30;0.20;;;6.70;99.90;;;;;;5115938;28;20889;-59
2023/02/03 01:01:29;;;;;;;0.80;0.10;;;6.70;99.90;;;;;;5117255;28;20465;-58
2023/02/03 01:03:56;;;;;;;0.40;0.20;;;6.70;99.90;;;;;;5117026;28;20851;-58
2023/02/03 01:06:25;;;;;;;0.40;0.20;;;6.60;99.90;;;;;;5117468;28;20424;-59
2023/02/03 01:08:53;;;;;;;0.40;0.20;;;6.60;99.90;;;;;;5117408;28;20427;-58
2023/02/03 01:11:21;;;;;;;0.40;0.20;;;6.60;99.90;;;;;;5117093;28;20423;-59
2023/02/03 01:13:49;;;;;;;0.30;0.20;;;6.60;99.90;;;;;;5115678;28;20420;-59
2023/02/03 01:16:18;;;;;;;0.40;0.20;;;6.50;99.90;;;;;;5117248;28;20423;-59
2023/02/03 01:18:45;;;;;;;0.40;0.20;;;6.60;99.90;;;;;;5117132;28;20424;-58
2023/02/03 01:21:14;;;;;;;0.70;0.20;;;6.60;99.90;;;;;;5117026;28;20834;-59
2023/02/03 01:23:43;;;;;;;0.50;0.20;;;6.60;99.90;;;;;;5116767;28;20432;-59
2023/02/03 01:26:12;;;;;;;0.40;0.20;;;6.50;99.90;;;;;;5116009;28;20716;-59
2023/02/03 01:28:40;;;;;;;0.45;0.20;;;6.40;99.90;;;;;;5117136;28;20424;-58
2023/02/03 01:31:12;;;;;;;0.80;0.20;;;6.30;99.90;;;;;;5116671;28;20416;-58
2023/02/03 01:33:40;;;;;;;0.90;0.20;;;6.30;99.90;;;;;;5116532;28;20432;-59
2023/02/03 01:36:08;;;;;;;1.40;0.30;;;6.30;99.90;;;;;;5115611;28;20449;-59
2023/02/03 01:38:35;;;;;;;0.40;0.20;;;6.40;99.90;;;;;;5117120;28;20424;-59
2023/02/03 01:41:04;;;;;;;0.40;0.20;;;6.40;99.90;;;;;;5116518;28;20405;-59
2023/02/03 01:43:34;;;;;;;0.40;0.20;;;6.50;99.90;;;;;;5116842;28;20419;-58
2023/02/03 01:46:04;;;;;;;0.40;0.20;;;6.40;99.90;;;;;;5114985;28;20424;-58
2023/02/03 01:48:33;;;;;;;0.40;0.20;;;6.40;99.90;;;;;;5116427;28;20831;-58
2023/02/03 01:51:03;;;;;;;0.40;0.20;;;6.40;99.90;;;;;;5116086;28;20416;-58
2023/02/03 01:53:32;;;;;;;0.43;0.20;;;6.30;99.90;;;;;;5116442;28;20467;-59
2023/02/03 01:56:00;;;;;;;0.50;0.20;;;6.40;99.90;;;;;;5115953;28;20412;-59
2023/02/03 01:58:31;;;;;;;0.50;0.30;;;6.40;99.90;;;;;;5115962;28;20455;-59
2023/02/03 02:00:59;;;;;;;0.50;0.20;;;6.30;99.90;;;;;;5116798;28;20874;-59
2023/02/03 02:03:45;;;;;;;0.50;0.25;;;6.30;99.90;;;;;;5115029;28;20427;-59
2023/02/03 02:06:14;;;;;;;0.90;0.20;;;6.30;99.90;;;;;;5114366;28;20412;-58
2023/02/03 02:08:44;;;;;;;0.60;0.20;;;6.30;99.90;;;;;;5113186;28;20423;-59
2023/02/03 02:11:12;;;;;;;0.55;0.22;;;6.40;99.90;;;;;;5114768;28;20747;-59
2023/02/03 02:13:41;;;;;;;0.40;0.20;;;6.30;99.90;;;;;;5113734;28;20428;-59
2023/02/03 02:16:12;;;;;;;0.68;0.20;;;6.30;99.90;;;;;;5114466;28;20412;-59
2023/02/03 02:19:01;;;;;;;0.40;0.20;;;6.30;99.90;;;;;;5114619;28;20723;-59
2023/02/03 02:21:48;;;;;;;0.60;0.20;;;6.30;99.90;;;;;;5116060;28;20487;-59
2023/02/03 02:24:55;;;;;;;0.50;0.30;;;6.30;99.90;;;;;;5115422;28;20436;-59
2023/02/03 02:28:16;;;;;;;0.50;0.20;;;6.20;99.90;;;;;;5112536;28;20427;-58
2023/02/03 02:31:13;;;;;;;0.55;0.30;;;6.20;99.90;;;;;;5115421;28;20443;-59
2023/02/03 02:33:46;;;;;;;0.50;0.20;;;6.20;99.90;;;;;;5114937;28;20728;-59
2023/02/03 02:36:23;;;;;;;0.40;0.20;;;6.10;99.90;;;;;;5116473;28;20411;-59
2023/02/03 02:38:58;;;;;;;0.60;0.20;;;6.10;99.90;;;;;;5115300;28;20424;-59
2023/02/03 02:41:29;;;;;;;0.50;0.30;;;6.10;99.90;;;;;;5115034;28;20450;-59
2023/02/03 02:44:01;;;;;;;0.60;0.30;;;6.10;99.90;;;;;;5115121;28;20851;-59
2023/02/03 02:46:34;;;;;;;0.40;0.20;;;6.20;99.90;;;;;;5115470;28;20507;-59
2023/02/03 02:49:07;;;;;;;0.70;0.30;;;6.10;99.90;;;;;;5114409;28;20424;-59
2023/02/03 02:51:36;;;;;;;0.90;0.40;;;6.10;99.90;;;;;;5115416;28;20511;-59
2023/02/03 02:54:08;;;;;;;0.60;0.30;;;6.20;99.90;;;;;;5114226;28;20424;-59
2023/02/03 02:56:38;;;;;;;0.90;0.30;;;6.20;99.90;;;;;;5115291;28;20817;-59
2023/02/03 02:59:06;;;;;;;0.70;0.30;;;6.20;99.90;;;;;;5114666;28;20424;-59
2023/02/03 03:01:34;;;;;;;0.40;0.30;;;6.20;99.90;;;;;;5115153;28;20416;-59
2023/02/03 03:04:05;;;;;;;0.40;0.30;;;6.30;99.90;;;;;;5114754;28;20423;-59
2023/02/03 03:06:35;;;;;;;1.20;0.30;;;6.30;99.90;;;;;;5114639;28;20408;-59
2023/02/03 03:09:05;;;;;;;0.60;0.30;;;6.40;99.90;;;;;;5114889;28;20424;-59
2023/02/03 03:11:37;;;;;;;0.50;0.30;;;6.50;99.90;;;;;;5114931;28;20412;-59
2023/02/03 03:14:08;;;;;;;0.70;0.20;;;6.50;99.90;;;;;;5115660;28;20446;-59
2023/02/03 03:16:39;;;;;;;0.60;0.30;;;6.40;99.90;;;;;;5114232;28;20769;-59
2023/02/03 03:19:10;;;;;;;0.60;0.30;;;6.40;99.90;;;;;;5114556;28;20882;-59
2023/02/03 03:21:44;;;;;;;0.95;0.30;;;6.40;99.90;;;;;;5115905;28;20420;-59
2023/02/03 03:24:14;;;;;;;0.90;0.30;;;6.40;99.90;;;;;;5118977;28;20723;-59
2023/02/03 03:26:47;;;;;;;0.52;0.22;;;6.40;99.90;;;;;;5119438;28;20412;-59
2023/02/03 03:29:19;;;;;;;0.45;0.30;;;6.40;99.90;;;;;;5119047;28;20435;-59
2023/02/03 03:31:46;;;;;;;0.40;0.30;;;6.40;99.90;;;;;;5117455;28;20420;-59
2023/02/03 03:34:16;;;;;;;0.73;0.30;;;6.40;99.90;;;;;;5119701;28;20432;-59
2023/02/03 03:36:47;;;;;;;0.90;0.20;;;6.50;99.90;;;;;;5119596;28;20420;-59
2023/02/03 03:39:22;;;;;;;0.60;0.30;;;6.50;99.90;;;;;;5119149;28;20427;-59
2023/02/03 03:41:57;;;;;;;0.40;0.20;;;6.50;99.90;;;;;;5119153;28;20420;-59
2023/02/03 03:44:29;;;;;;;0.50;0.30;;;6.40;99.90;;;;;;5118853;28;20420;-59
2023/02/03 03:47:03;;;;;;;0.35;0.20;;;6.40;99.90;;;;;;5118949;28;20420;-59
2023/02/03 03:49:34;;;;;;;0.55;0.20;;;6.40;99.90;;;;;;5118709;28;20427;-59
2023/02/03 03:52:05;;;;;;;0.60;0.30;;;6.40;99.90;;;;;;5118430;28;20474;-59
2023/02/03 03:54:33;;;;;;;0.40;0.20;;;6.50;99.90;;;;;;5119275;28;20744;-59
2023/02/03 03:57:05;;;;;;;0.30;0.10;;;6.50;99.90;;;;;;5118953;28;20846;-60
2023/02/03 03:59:37;;;;;;;0.30;0.10;;;6.50;99.90;;;;;;5118403;28;20430;-59
2023/02/03 04:02:04;;;;;;;1.30;0.20;;;6.50;99.90;;;;;;5118560;28;20499;-59
2023/02/03 04:04:36;;;;;;;0.30;0.20;;;6.50;99.90;;;;;;5118867;28;20435;-59
2023/02/03 04:07:03;;;;;;;0.30;0.10;;;6.50;99.90;;;;;;5118522;28;20823;-59
2023/02/03 04:09:30;;;;;;;0.40;0.17;;;6.50;99.90;;;;;;5118386;28;20423;-59
2023/02/03 04:12:05;;;;;;;0.30;0.20;;;6.50;99.90;;;;;;5118414;28;20436;-59
2023/02/03 04:14:34;;;;;;;0.30;0.10;;;6.60;99.90;;;;;;5119005;28;20515;-60
2023/02/03 04:17:01;;;;;;;0.30;0.10;;;6.50;99.90;;;;;;5118671;28;20416;-59
2023/02/03 04:19:29;;;;;;;0.30;0.10;;;6.50;99.90;;;;;;5118064;28;20442;-59
2023/02/03 04:21:57;;;;;;;0.30;0.10;;;6.50;99.90;;;;;;5117887;28;20423;-59
2023/02/03 04:24:24;;;;;;;0.50;0.20;;;6.50;99.90;;;;;;5118350;28;20721;-59
2023/02/03 04:26:51;;;;;;;0.40;0.20;;;6.40;99.90;;;;;;5117184;28;20435;-58
2023/02/03 04:29:18;;;;;;;0.30;0.10;;;6.50;99.90;;;;;;5117850;28;20424;-58
2023/02/03 04:31:45;;;;;;;0.40;0.10;;;6.40;99.90;;;;;;5118251;28;20422;-58
2023/02/03 04:34:12;;;;;;;0.30;0.10;;;6.40;99.90;;;;;;5118445;28;20439;-58
2023/02/03 04:36:39;;;;;;;0.40;0.10;;;6.30;99.90;;;;;;5117747;28;20420;-58
2023/02/03 04:39:08;;;;;;;0.30;0.10;;;6.30;99.90;;;;;;5118053;28;20428;-58
2023/02/03 04:41:35;;;;;;;0.90;0.10;;;6.20;99.90;;;;;;5118036;28;20424;-59
2023/02/03 04:44:02;;;;;;;0.77;0.40;;;6.10;99.90;;;;;;5118069;28;20428;-59
2023/02/03 04:46:29;;;;;;;0.40;0.10;;;6.10;99.90;;;;;;5117792;28;20433;-59
2023/02/03 04:48:56;;;;;;;0.30;0.20;;;6.10;99.90;;;;;;5117687;28;20428;-58
2023/02/03 04:51:23;;;;;;;0.30;0.10;;;6.10;99.90;;;;;;5117659;28;20865;-58
2023/02/03 04:53:50;;;;;;;0.30;0.20;;;6.10;99.90;;;;;;5117640;28;20428;-58
2023/02/03 04:56:18;;;;;;;0.30;0.10;;;6.10;99.90;;;;;;5115524;28;20735;-58
2023/02/03 04:58:45;;;;;;;0.40;0.10;;;6.10;99.90;;;;;;5117469;28;20420;-59
2023/02/03 05:01:12;;;;;;;0.40;0.20;;;6.00;99.90;;;;;;5117308;28;20637;-58
2023/02/03 05:03:39;;;;;;;0.30;0.20;;;6.00;99.90;;;;;;5115909;28;20858;-59
2023/02/03 05:06:07;;;;;;;0.40;0.20;;;5.90;99.90;;;;;;5117461;28;20435;-59
2023/02/03 05:08:34;;;;;;;0.40;0.20;;;5.80;99.90;;;;;;5117390;28;20420;-59
2023/02/03 05:11:01;;;;;;;1.00;0.20;;;5.80;99.90;;;;;;5116156;28;20420;-59
2023/02/03 05:13:29;;;;;;;0.80;0.20;;;5.90;99.90;;;;;;5117441;28;20433;-59
2023/02/03 05:15:56;;;;;;;0.50;0.20;;;5.90;99.90;;;;;;5117013;28;20735;-58
2023/02/03 05:18:23;;;;;;;0.30;0.20;;;5.90;99.90;;;;;;5117023;28;20428;-58
2023/02/03 05:20:50;;;;;;;0.80;0.20;;;5.80;99.90;;;;;;5116617;28;20717;-58
2023/02/03 05:23:17;;;;;;;0.70;0.20;;;5.80;99.90;;;;;;5114947;28;20890;-58
2023/02/03 05:25:45;;;;;;;0.40;0.20;;;5.80;99.90;;;;;;5115330;28;20428;-59
2023/02/03 05:28:12;;;;;;;0.40;0.20;;;5.80;99.90;;;;;;5116328;28;20704;-58
2023/02/03 05:30:41;;;;;;;0.40;0.20;;;5.90;99.90;;;;;;5114545;28;20423;-57
2023/02/03 05:33:08;;;;;;;0.80;0.20;;;5.90;99.90;;;;;;5114633;28;20427;-58
2023/02/03 05:35:36;;;;;;;0.40;0.20;;;6.00;99.90;;;;;;5114742;28;20415;-58
2023/02/03 05:38:03;;;;;;;0.50;0.20;;;6.10;99.90;;;;;;5113351;28;20448;-58
2023/02/03 05:43:14;;;;;;;0.50;0.20;;;6.10;99.90;;;;;;5113935;28;20419;-58
2023/02/03 05:45:43;;;;;;;0.40;0.20;;;6.30;99.90;;;;;;5113786;28;20705;-58
2023/02/03 05:48:10;;;;;;;0.70;0.20;;;6.20;99.90;;;;;;5115160;28;20428;-58
2023/02/03 05:50:37;;;;;;;0.40;0.20;;;6.20;99.90;;;;;;5114231;28;20408;-58
2023/02/03 05:53:05;;;;;;;0.63;0.20;;;6.20;99.90;;;;;;5114423;28;20431;-58
2023/02/03 05:55:34;;;;;;;0.70;0.20;;;6.20;99.90;;;;;;5115857;28;20493;-58
2023/02/03 05:58:01;;;;;;;0.70;0.20;;;6.30;99.90;;;;;;5115526;28;20428;-58
2023/02/03 06:00:28;;;;;;;0.45;0.20;;;6.40;99.90;;;;;;5115736;28;20439;-58
2023/02/03 06:02:59;;;;;;;0.45;0.20;;;6.30;99.90;;;;;;5115393;28;20439;-58
2023/02/03 06:05:26;;;;;;;0.40;0.20;;;6.30;99.90;;;;;;5115165;28;20479;-58
2023/02/03 06:07:54;;;;;;;0.40;0.20;;;6.30;99.90;;;;;;5113807;28;20420;-59
2023/02/03 06:10:21;;;;;;;0.90;0.20;;;6.30;99.90;;;;;;5115393;28;20511;-58
2023/02/03 06:12:48;;;;;;;0.47;0.20;;;6.30;99.90;;;;;;5115035;28;20710;-59
2023/02/03 06:15:16;;;;;;;0.50;0.20;;;6.30;99.90;;;;;;5113995;28;20728;-58
2023/02/03 06:17:45;;;;;;;0.70;0.50;;;6.20;99.90;;;;;;5113880;28;20937;-58
2023/02/03 06:20:15;;;;;;;0.50;0.30;;;6.20;99.90;;;;;;5112948;28;20427;-58
2023/02/03 06:22:43;;;;;;;0.50;0.30;;;6.20;99.90;;;;;;5113451;28;20724;-58
2023/02/03 06:25:10;;;;;;;0.55;0.40;;;6.20;99.90;;;;;;5114107;28;20423;-59
2023/02/03 06:27:38;;;;;;;1.20;0.40;;;6.20;99.90;;;;;;5111437;28;20452;-58
2023/02/03 06:30:06;;;;;;;2.10;0.40;;;6.20;99.90;;;;;;5112679;28;20420;-58
2023/02/03 06:32:33;;;;;;;0.50;0.20;;;6.20;99.90;;;;;;5112874;28;20795;-58
2023/02/03 06:35:00;;;;;;;1.67;0.30;;;6.20;99.90;;;;;;5113364;28;20527;-58
2023/02/03 06:37:28;;;;;;;0.60;0.30;;;6.20;99.90;;;;;;5111016;28;20403;-58
2023/02/03 06:39:55;;;;;;;0.40;0.25;;;6.20;99.90;;;;;;5111016;28;20420;-58
2023/02/03 06:42:22;;;;;;;1.13;0.20;;;6.30;99.90;;;;;;5110700;28;20846;-58
2023/02/03 06:44:49;;;;;;;0.40;0.20;;;6.20;99.90;;;;;;5110853;28;21121;-58
2023/02/03 06:47:16;;;;;;;0.90;0.30;;;6.20;99.90;;;;;;5110785;28;20863;-58
2023/02/03 06:49:43;;;;;;;0.50;0.20;;;6.10;99.90;;;;;;5113794;28;20431;-58
2023/02/03 06:52:10;;;;;;;0.80;0.20;;;6.20;99.90;;;;;;5114184;28;20423;-58
2023/02/03 06:54:39;;;;;;;0.93;0.50;;;6.20;99.90;;;;;;5113504;28;20432;-59
2023/02/03 06:57:06;;;;;;;0.60;0.30;;;6.20;99.90;;;;;;5112969;28;20404;-57
2023/02/03 06:59:33;;;;;;;1.00;0.30;;;6.20;99.90;;;;;;5115016;28;20420;-58
2023/02/03 07:02:00;;;;;;;0.47;0.20;;;6.20;99.90;;;;;;5114737;28;20427;-59
2023/02/03 07:04:29;;;;;;;0.50;0.20;;;6.20;99.90;;;;;;5113239;28;20424;-59
2023/02/03 07:06:56;;;;;;;0.50;0.20;;;6.20;99.90;;;;;;5112826;28;20867;-58
2023/02/03 07:09:23;;;;;;;0.45;0.20;;;6.20;99.90;;;;;;5114251;28;20424;-59
2023/02/03 07:11:51;;;;;;;0.40;0.20;;;6.20;99.90;;;;;;5112779;28;20416;-57
2023/02/03 07:14:19;;;;;;;0.40;0.20;;;6.30;99.90;;;;;;5112708;28;20428;-58
2023/02/03 07:16:46;;;;;;;1.40;0.30;;;6.30;99.90;;;;;;5113725;28;20423;-59
2023/02/03 07:19:15;;;;;;;1.50;0.37;;;6.20;99.90;;;;;;5101300;28;20435;-58
2023/02/03 07:21:42;;;;;;;0.70;0.30;;;6.20;99.90;;;;;;5100492;28;20908;-58
2023/02/03 07:24:09;;;;;;;0.90;0.30;;;6.20;99.90;;;;;;5092882;28;20426;-58
2023/02/03 07:26:37;;;;;;;1.53;0.30;;;6.10;99.90;;;;;;5091355;28;20438;-58
2023/02/03 07:29:06;;;;;;;0.47;0.20;;;6.00;99.90;;;;;;5106266;28;20428;-55
2023/02/03 07:31:34;;;;;;;0.40;0.20;;;6.10;99.90;;;;;;5091388;28;20422;-57
2023/02/03 07:34:01;;;;;;;0.50;0.28;;;6.10;99.90;;;;;;5091397;28;20429;-57
2023/02/03 07:36:28;;;;;;;0.43;0.22;;;6.10;99.90;;;;;;5091154;28;20828;-57
2023/02/03 07:38:55;;;;;;;0.50;0.30;;;6.10;99.90;;;;;;5089806;28;20422;-56
2023/02/03 07:41:23;;;;;;;0.45;0.30;;;6.00;99.90;;;;;;5089446;28;20424;-55
2023/02/03 07:43:50;;;;;;;0.50;0.20;;;6.00;99.90;;;;;;5091031;28;20429;-56
2023/02/03 07:46:18;;;;;;;0.50;0.20;;;6.00;99.90;;;;;;5091669;28;20853;-55
2023/02/03 07:48:45;;;;;;;1.02;0.30;;;6.00;99.90;;;;;;5092727;28;20451;-57
2023/02/03 07:51:13;;;;;;;0.60;0.30;;;6.00;99.90;;;;;;5102722;28;20479;-57
2023/02/03 07:53:40;;;;;;;0.75;0.30;;;6.00;99.90;;;;;;5092182;28;20422;-57
2023/02/03 07:56:07;;;;;;;0.68;0.20;;;6.30;99.90;;;;;;5092851;28;20729;-56
2023/02/03 07:58:34;;;;;;;1.00;0.30;;;6.20;99.90;;;;;;5093566;28;20436;-58
2023/02/03 08:01:01;;;;;;;1.25;0.60;;;6.20;99.90;;;;;;5093639;28;20425;-56
2023/02/03 08:03:29;;;;;;;0.85;0.30;;;6.10;99.90;;;;;;5093915;28;20437;-59
2023/02/03 08:05:56;;;;;;;1.25;0.40;;;6.10;99.90;;;;;;5092037;28;20852;-58
2023/02/03 08:08:23;;;;;;;0.90;0.30;;;6.10;99.90;;;;;;5097038;28;20435;-58
2023/02/03 08:10:50;;;;;;;0.60;0.30;;;6.10;99.90;;;;;;5106445;28;20437;-59
2023/02/03 08:13:17;;;;;;;0.80;0.40;;;6.00;99.90;;;;;;5096134;28;20433;-58
2023/02/03 08:15:44;;;;;;;0.68;0.30;;;6.00;99.90;;;;;;5094773;28;20426;-56
2023/02/03 08:18:11;;;;;;;0.57;0.30;;;6.00;99.90;;;;;;5094820;28;20429;-56
2023/02/03 08:20:40;;;;;;;0.70;0.40;;;6.00;99.90;;;;;;5094606;28;20422;-55
2023/02/03 08:23:07;;;;;;;1.15;0.40;;;6.10;99.90;;;;;;5093243;28;20438;-56
2023/02/03 08:25:34;;;;;;;1.20;0.40;;;6.20;99.90;;;;;;5099412;28;20420;-56
2023/02/03 08:28:01;;;;;;;1.40;0.50;;;6.20;99.90;;;;;;5093762;28;21064;-56
2023/02/03 08:30:28;;;;;;;1.40;0.40;;;6.20;99.90;;;;;;5098284;28;20422;-57
2023/02/03 08:32:55;;;;;;;0.80;0.40;;;6.20;99.90;;;;;;5093336;28;20719;-57
2023/02/03 08:35:22;;;;;;;0.70;0.40;;;6.20;99.90;;;;;;5094289;28;20838;-57
2023/02/03 08:37:51;;;;;;;0.80;0.40;;;6.20;99.90;;;;;;5092960;28;20840;-56
2023/02/03 08:40:18;;;;;;;0.70;0.40;;;6.20;99.90;;;;;;5093703;28;20425;-57
2023/02/03 08:42:45;;;;;;;0.85;0.40;;;6.20;99.90;;;;;;5094186;28;20426;-56
2023/02/03 08:45:12;;;;;;;1.23;0.40;;;6.20;99.90;;;;;;5092724;28;20418;-57
2023/02/03 08:47:39;;;;;;;1.33;0.50;;;6.20;99.90;;;;;;5092287;28;20422;-56
2023/02/03 08:50:08;;;;;;;0.60;0.40;;;6.20;99.90;;;;;;5092086;28;20749;-56
2023/02/03 08:52:36;;;;;;;1.00;0.40;;;6.30;99.90;;;;;;5094335;28;20420;-57
2023/02/03 08:55:05;;;;;;;0.50;0.40;;;6.40;99.90;;;;;;5093910;28;20425;-58
2023/02/03 08:57:34;;;;;;;0.80;0.40;;;6.40;99.90;;;;;;5094506;28;20406;-58
2023/02/03 09:00:01;;;;;;;2.00;0.40;;;6.50;99.90;;;;;;5094052;28;20426;-58
2023/02/03 09:02:28;;;;;;;0.68;0.40;;;6.50;99.90;;;;;;5092971;28;20414;-57
2023/02/03 09:04:55;;;;;;;1.13;0.50;;;6.50;99.90;;;;;;5093847;28;20868;-58
2023/02/03 09:07:22;;;;;;;0.63;0.40;;;6.40;99.90;;;;;;5093446;28;20852;-58
2023/02/03 09:09:49;;;;;;;0.90;0.43;;;6.40;99.90;;;;;;5094041;28;20426;-58
2023/02/03 09:12:18;;;;;;;0.70;0.45;;;6.50;99.90;;;;;;5094094;28;20418;-59
2023/02/03 09:14:45;;;;;;;1.30;0.50;;;6.50;99.90;;;;;;5095716;28;20748;-60
2023/02/03 09:17:12;;;;;;;0.80;0.50;;;6.50;99.90;;;;;;5095622;28;20776;-59
2023/02/03 09:19:39;;;;;;;0.85;0.50;;;6.50;99.90;;;;;;5093513;28;20432;-59
2023/02/03 09:22:06;;;;;;;0.88;0.50;;;6.50;99.90;;;;;;5094208;28;20418;-59
2023/02/03 09:24:33;;;;;;;0.80;0.40;;;6.50;99.90;;;;;;5094176;28;20426;-59
2023/02/03 09:27:01;;;;;;;0.80;0.50;;;6.60;99.90;;;;;;5095336;28;20433;-59
2023/02/03 09:29:29;;;;;;;1.30;0.50;;;6.60;99.90;;;;;;5094166;28;20449;-59
2023/02/03 09:31:56;;;;;;;0.90;0.50;;;6.60;99.90;;;;;;5092103;28;20422;-59
2023/02/03 09:34:23;;;;;;;1.03;0.50;;;6.70;99.90;;;;;;5091952;28;20635;-59
2023/02/03 09:36:51;;;;;;;0.90;0.40;;;6.70;99.90;;;;;;5091868;28;20418;-59
2023/02/03 09:39:18;;;;;;;0.60;0.40;;;6.80;99.90;;;;;;5093321;28;20425;-59
2023/02/03 09:42:10;;;;;;;1.10;0.40;;;6.80;99.90;;;;;;5092046;28;20780;-59
2023/02/03 09:44:45;;;;;;;0.80;0.40;;;6.90;99.90;;;;;;5091619;28;20845;-59
2023/02/03 09:47:15;;;;;;;1.10;0.35;;;7.00;99.90;;;;;;5107565;28;20428;-59
2023/02/03 09:49:47;;;;;;;1.30;0.30;;;7.00;99.90;;;;;;5109311;28;20876;-59
2023/02/03 09:52:18;;;;;;;0.80;0.40;;;7.10;99.90;;;;;;5113131;28;20746;-59
2023/02/03 09:54:53;;;;;;;1.70;0.50;;;7.20;99.90;;;;;;5106923;28;20695;-59
2023/02/03 09:57:22;;;;;;;0.80;0.40;;;7.30;99.90;;;;;;5092902;28;20417;-60
2023/02/03 09:59:53;;;;;;;1.20;0.40;;;7.30;99.90;;;;;;5109971;28;20859;-60
2023/02/03 10:02:31;;;;;;;0.77;0.40;;;7.30;99.90;;;;;;5114796;28;20439;-59
2023/02/03 10:05:03;;;;;;;1.13;0.40;;;7.40;99.90;;;;;;5115141;28;20427;-59
2023/02/03 10:07:40;;;;;;;1.10;0.40;;;7.40;99.90;;;;;;5113677;28;20435;-60
2023/02/03 10:10:16;;;;;;;1.00;0.47;;;7.50;99.90;;;;;;5103301;28;20885;-59
2023/02/03 10:13:02;;;;;;;0.90;0.50;;;7.50;99.90;;;;;;5089672;28;20833;-60
2023/02/03 10:16:00;;;;;;;1.10;0.45;;;7.50;99.90;;;;;;5074575;28;20421;-60
2023/02/03 10:18:31;;;;;;;0.82;0.40;;;7.50;99.90;;;;;;5092167;28;20421;-59
2023/02/03 10:21:04;;;;;;;0.90;0.40;;;7.60;99.90;;;;;;5091584;28;20422;-59
2023/02/03 10:23:35;;;;;;;0.80;0.40;;;7.60;99.90;;;;;;5092281;28;20821;-59
2023/02/03 10:26:05;;;;;;;0.90;0.50;;;7.60;99.90;;;;;;5094204;28;20417;-60
2023/02/03 10:28:38;;;;;;;1.85;0.50;;;7.60;99.90;;;;;;5092422;28;20430;-60
2023/02/03 10:31:16;;;;;;;1.00;0.40;;;7.60;99.90;;;;;;5097722;28;20431;-59
2023/02/03 10:33:44;;;;;;;0.70;0.40;;;7.70;99.90;;;;;;5090526;28;20443;-59
2023/02/03 10:36:20;;;;;;;1.17;0.60;;;7.70;99.90;;;;;;5090060;28;20520;-59
2023/02/03 10:38:59;;;;;;;0.80;0.52;;;7.80;99.90;;;;;;5093640;28;20433;-60
2023/02/03 10:41:28;;;;;;;1.80;1.20;;;7.80;99.90;;;;;;5093170;28;20903;-60
2023/02/03 10:43:56;;;;;;;0.70;0.40;;;7.80;99.90;;;;;;5090521;28;20433;-59
2023/02/03 10:46:28;;;;;;;0.70;0.40;;;7.80;99.90;;;;;;5092946;28;20440;-59
2023/02/03 10:48:55;;;;;;;0.70;0.30;;;7.80;99.90;;;;;;5090982;28;20430;-59
2023/02/03 10:51:24;;;;;;;0.70;0.30;;;7.90;99.90;;;;;;5090969;28;20444;-58
2023/02/03 10:53:52;;;;;;;0.60;0.30;;;7.90;99.90;;;;;;5091545;28;20422;-61
2023/02/03 10:56:23;;;;;;;0.53;0.23;;;8.00;99.90;;;;;;5086044;28;20432;-61
2023/02/03 10:58:52;;;;;;;0.60;0.25;;;8.00;99.90;;;;;;5098650;28;20412;-61
2023/02/03 11:01:22;;;;;;;1.70;0.28;;;8.10;99.90;;;;;;5102827;28;20430;-61
2023/02/03 11:04:02;;;;;;;0.50;0.20;;;8.10;99.90;;;;;;5090618;28;20426;-59
2023/02/03 11:06:31;;;;;;;0.70;0.20;;;8.30;99.90;;;;;;5089498;28;20764;-61
2023/02/03 11:08:59;;;;;;;0.50;0.20;;;8.30;99.90;;;;;;5105800;28;20438;-60
2023/02/03 11:11:30;;;;;;;0.50;0.22;;;8.40;99.90;;;;;;5100125;28;20423;-61
2023/02/03 11:14:12;;;;;;;0.40;0.20;;;8.40;99.90;;;;;;5112856;28;20463;-60
2023/02/03 11:16:40;;;;;;;0.80;0.20;;;8.40;99.90;;;;;;5112963;28;20412;-60
2023/02/03 11:19:17;;;;;;;0.68;0.20;;;8.40;99.90;;;;;;5110471;28;20420;-61
2023/02/03 11:21:47;;;;;;;0.98;0.30;;;8.40;99.90;;;;;;5099304;28;20414;-60
2023/02/03 11:24:19;;;;;;;0.90;0.40;;;8.40;99.90;;;;;;5093340;28;20764;-61
2023/02/03 11:26:50;;;;;;;1.20;0.30;;;8.50;99.90;;;;;;5094139;28;20856;-59
2023/02/03 11:29:22;;;;;;;0.50;0.20;;;8.60;99.90;;;;;;5089643;28;20853;-59
2023/02/03 11:31:52;;;;;;;0.50;0.28;;;8.60;99.90;;;;;;5089413;28;20432;-59
2023/02/03 11:34:25;;;;;;;1.60;0.20;;;8.60;99.90;;;;;;5089233;28;20913;-59
2023/02/03 11:36:52;;;;;;;1.60;0.40;;;8.60;99.90;;;;;;5089016;28;20464;-58
2023/02/03 11:39:25;;;;;;;0.63;0.30;;;8.70;99.90;;;;;;5089790;28;20872;-59
2023/02/03 11:41:53;;;;;;;0.40;0.20;;;8.90;99.90;;;;;;5090844;28;20421;-58
2023/02/03 11:44:24;;;;;;;0.40;0.10;;;9.00;99.90;;;;;;5096363;28;20478;-59
2023/02/03 11:46:55;;;;;;;0.50;0.20;;;9.00;99.90;;;;;;5095896;28;20453;-58
2023/02/03 11:49:57;;;;;;;0.60;0.20;;;9.10;99.90;;;;;;5103594;28;20504;-58
2023/02/03 11:52:41;;;;;;;0.55;0.38;;;9.10;99.90;;;;;;5095503;28;20417;-58
2023/02/03 11:55:20;;;;;;;0.80;0.28;;;9.20;99.90;;;;;;5096273;28;20740;-59
2023/02/03 11:58:02;;;;;;;1.10;0.30;;;9.10;99.90;;;;;;5106949;28;20685;-58
2023/02/03 12:00:39;;;;;;;1.40;0.20;;;9.00;99.90;;;;;;5094024;28;21006;-58
2023/02/03 12:03:32;;;;;;;0.50;0.20;;;9.10;99.90;;;;;;5095974;28;20429;-58
2023/02/03 12:06:22;;;;;;;0.70;0.30;;;9.20;99.90;;;;;;5096031;28;20877;-58
2023/02/03 12:09:08;;;;;;;0.50;0.20;;;9.20;99.90;;;;;;5096086;28;20436;-59
2023/02/03 12:11:52;;;;;;;0.52;0.15;;;9.20;99.90;;;;;;5093550;28;20418;-59
2023/02/03 12:14:35;;;;;;;0.40;0.20;;;9.10;99.90;;;;;;5095210;28;20465;-58
2023/02/03 12:17:21;;;;;;;0.30;0.10;;;9.00;99.90;;;;;;5092625;28;20429;-59
2023/02/03 12:20:05;;;;;;;0.40;0.10;;;8.90;99.90;;;;;;5093542;28;20417;-58
2023/02/03 12:22:43;;;;;;;0.30;0.10;;;8.90;99.90;;;;;;5094434;28;20528;-59
2023/02/03 12:25:26;;;;;;;0.40;0.20;;;9.00;99.90;;;;;;5096304;28;20461;-59
2023/02/03 12:28:03;;;;;;;0.50;0.20;;;9.10;99.90;;;;;;5095521;28;20430;-59
2023/02/03 12:30:35;;;;;;;0.50;0.20;;;9.10;99.90;;;;;;5094638;28;20453;-60
2023/02/03 12:33:10;;;;;;;0.40;0.20;;;9.20;99.90;;;;;;5095246;28;20418;-59
2023/02/03 12:35:42;;;;;;;0.40;0.10;;;9.20;99.90;;;;;;5098051;28;20705;-59
2023/02/03 12:38:17;;;;;;;0.30;0.10;;;9.00;99.90;;;;;;5112126;28;20428;-60
2023/02/03 12:40:48;;;;;;;0.30;0.10;;;9.00;99.90;;;;;;5114294;28;20414;-58
2023/02/03 12:43:23;;;;;;;0.40;0.20;;;8.90;99.90;;;;;;5113740;28;20427;-58
2023/02/03 12:45:55;;;;;;;0.30;0.20;;;9.00;99.90;;;;;;5109541;28;20855;-57
2023/02/03 12:48:26;;;;;;;0.35;0.20;;;8.90;99.90;;;;;;5103716;28;20441;-57
2023/02/03 12:50:59;;;;;;;0.50;0.20;;;9.00;99.90;;;;;;5090920;28;20755;-57
2023/02/03 12:53:31;;;;;;;0.88;0.20;;;8.90;99.90;;;;;;5091017;28;20530;-56
2023/02/03 12:56:03;;;;;;;0.40;0.20;;;8.90;99.90;;;;;;5093441;28;20494;-57
2023/02/03 12:58:35;;;;;;;0.80;0.20;;;8.90;99.90;;;;;;5094860;28;20460;-59
2023/02/03 13:01:07;;;;;;;0.50;0.28;;;8.90;99.90;;;;;;5091943;28;20424;-58
2023/02/03 13:03:41;;;;;;;0.40;0.20;;;8.90;99.90;;;;;;5092959;28;20443;-58
2023/02/03 13:06:15;;;;;;;0.60;0.20;;;8.90;99.90;;;;;;5093222;28;20418;-57
2023/02/03 13:08:50;;;;;;;0.60;0.30;;;8.80;99.90;;;;;;5091663;28;20496;-58
2023/02/03 13:11:24;;;;;;;0.45;0.22;;;8.80;99.90;;;;;;5090540;28;20456;-59
2023/02/03 13:13:56;;;;;;;0.50;0.20;;;8.80;99.90;;;;;;5097665;28;20864;-58
2023/02/03 13:16:31;;;;;;;0.70;0.30;;;8.90;99.90;;;;;;5100403;28;20868;-58